createdAt,value
2018-11-10T00:01:02.880Z,35.83
2018-11-10T00:03:31.000Z,35.40
2018-11-10T00:05:59.088Z,37.70
2018-11-10T00:08:27.362Z,37.23
2018-11-10T00:10:55.318Z,33.37
2018-11-10T00:13:23.430Z,36.73
2018-11-10T00:15:51.528Z,33.60
2018-11-10T00:18:19.661Z,35.70
2018-11-10T00:20:47.756Z,37.27
2018-11-10T00:23:15.865Z,39.60
2018-11-10T00:25:43.973Z,36.67
2018-11-10T00:28:12.104Z,36.83
2018-11-10T00:30:40.210Z,39.10
2018-11-10T00:33:08.310Z,33.93
2018-11-10T00:35:36.417Z,35.37
2018-11-10T00:38:05.079Z,38.10
2018-11-10T00:40:33.219Z,33.43
2018-11-10T00:43:01.346Z,34.20
2018-11-10T00:45:29.469Z,32.90
2018-11-10T00:47:57.577Z,32.00
2018-11-10T00:50:25.696Z,34.77
2018-11-10T00:52:53.797Z,33.93
2018-11-10T00:55:22.001Z,36.77
2018-11-10T00:57:50.105Z,37.07
2018-11-10T01:00:18.234Z,31.97
2018-11-10T01:02:46.366Z,33.17
2018-11-10T01:05:14.549Z,34.00
2018-11-10T01:07:42.694Z,32.73
2018-11-10T01:10:12.110Z,31.50
2018-11-10T01:12:40.402Z,30.23
2018-11-10T01:15:10.192Z,34.07
2018-11-10T01:17:38.334Z,36.77
2018-11-10T01:20:07.334Z,30.53
2018-11-10T01:22:35.473Z,29.30
2018-11-10T01:25:03.613Z,34.47
2018-11-10T01:27:31.745Z,31.50
2018-11-10T01:29:59.890Z,26.30
2018-11-10T01:32:28.042Z,26.17
2018-11-10T01:34:56.182Z,28.10
2018-11-10T01:37:24.321Z,30.10
2018-11-10T01:39:52.478Z,27.13
2018-11-10T01:42:20.610Z,27.50
2018-11-10T01:44:48.794Z,23.40
2018-11-10T01:47:16.977Z,28.27
2018-11-10T01:49:45.491Z,25.43
2018-11-10T01:52:13.720Z,26.00
2018-11-10T01:54:42.009Z,27.60
2018-11-10T01:57:10.141Z,27.93
2018-11-10T01:59:38.279Z,22.73
2018-11-10T02:02:06.529Z,25.67
2018-11-10T02:04:34.686Z,24.93
2018-11-10T02:07:02.829Z,21.43
2018-11-10T02:09:30.979Z,24.70
2018-11-10T02:11:59.121Z,23.00
2018-11-10T02:14:27.302Z,24.33
2018-11-10T02:16:55.457Z,28.90
2018-11-10T02:19:23.629Z,23.97
2018-11-10T02:21:51.756Z,22.50
2018-11-10T02:24:19.934Z,20.43
2018-11-10T02:26:48.122Z,18.50
2018-11-10T02:29:16.261Z,22.40
2018-11-10T02:31:44.401Z,18.50
2018-11-10T02:34:12.533Z,19.40
2018-11-10T02:36:40.669Z,17.03
2018-11-10T02:39:09.262Z,19.10
2018-11-10T02:41:37.556Z,16.93
2018-11-10T02:44:05.985Z,16.70
2018-11-10T02:46:34.121Z,20.27
2018-11-10T02:49:02.273Z,13.53
2018-11-10T02:51:30.453Z,14.53
2018-11-10T02:53:58.605Z,15.23
2018-11-10T02:56:26.743Z,18.27
2018-11-10T02:58:54.879Z,14.60
2018-11-10T03:01:23.049Z,17.23
2018-11-10T03:03:51.172Z,17.33
2018-11-10T03:06:19.311Z,15.07
2018-11-10T03:08:47.430Z,15.33
2018-11-10T03:11:15.541Z,12.70
2018-11-10T03:13:43.655Z,15.73
2018-11-10T03:16:11.813Z,14.20
2018-11-10T03:18:39.909Z,17.63
2018-11-10T03:21:08.020Z,14.47
2018-11-10T03:23:36.128Z,14.17
2018-11-10T03:26:04.249Z,12.90
2018-11-10T03:28:32.472Z,16.00
2018-11-10T03:31:00.590Z,13.30
2018-11-10T03:33:28.689Z,18.87
2018-11-10T03:35:56.832Z,13.73
2018-11-10T03:38:24.927Z,14.70
2018-11-10T03:40:53.031Z,15.03
2018-11-10T03:43:21.134Z,13.30
2018-11-10T03:45:49.246Z,14.93
2018-11-10T03:48:17.337Z,13.93
2018-11-10T03:50:45.454Z,16.63
2018-11-10T03:53:13.562Z,15.73
2018-11-10T03:55:41.678Z,16.43
2018-11-10T03:58:09.790Z,13.03
2018-11-10T04:00:37.915Z,12.67
2018-11-10T04:03:06.135Z,12.07
2018-11-10T04:05:34.254Z,13.73
2018-11-10T04:08:02.345Z,12.17
2018-11-10T04:10:30.459Z,13.27
2018-11-10T04:12:58.577Z,10.20
2018-11-10T04:15:26.699Z,12.07
2018-11-10T04:17:54.822Z,12.03
2018-11-10T04:20:22.937Z,13.93
2018-11-10T04:22:51.065Z,12.23
2018-11-10T04:25:19.178Z,12.60
2018-11-10T04:27:47.318Z,12.07
2018-11-10T04:30:15.432Z,11.43
2018-11-10T04:32:43.565Z,12.67
2018-11-10T04:35:11.684Z,13.40
2018-11-10T04:37:39.813Z,13.50
2018-11-10T04:40:08.798Z,15.73
2018-11-10T04:42:36.918Z,11.70
2018-11-10T04:45:05.797Z,16.70
2018-11-10T04:47:33.927Z,14.30
2018-11-10T04:50:02.037Z,13.30
2018-11-10T04:52:30.128Z,12.33
2018-11-10T04:54:58.271Z,10.37
2018-11-10T04:57:26.367Z,11.37
2018-11-10T04:59:54.479Z,13.67
2018-11-10T05:02:22.598Z,11.87
2018-11-10T05:04:50.876Z,10.50
2018-11-10T05:07:19.005Z,11.00
2018-11-10T05:09:47.152Z,10.57
2018-11-10T05:12:15.310Z,12.80
2018-11-10T05:14:43.439Z,14.37
2018-11-10T05:17:11.610Z,12.87
2018-11-10T05:19:39.753Z,13.80
2018-11-10T05:22:07.886Z,16.77
2018-11-10T05:24:36.005Z,13.47
2018-11-10T05:27:04.252Z,12.07
2018-11-10T05:29:32.349Z,13.90
2018-11-10T05:32:00.488Z,13.63
2018-11-10T05:34:28.602Z,12.80
2018-11-10T05:36:56.717Z,14.13
2018-11-10T05:39:24.832Z,13.97
2018-11-10T05:41:52.935Z,10.23
2018-11-10T05:44:21.053Z,12.87
2018-11-10T05:46:49.249Z,12.27
2018-11-10T05:49:17.325Z,13.23
2018-11-10T05:51:45.429Z,10.90
2018-11-10T05:54:13.537Z,14.40
2018-11-10T05:56:41.632Z,14.80
2018-11-10T05:59:09.845Z,13.87
2018-11-10T06:01:37.944Z,14.10
2018-11-10T06:04:06.096Z,13.20
2018-11-10T06:06:34.227Z,14.80
2018-11-10T06:09:02.367Z,12.00
2018-11-10T06:11:30.497Z,14.07
2018-11-10T06:13:58.622Z,15.17
2018-11-10T06:16:26.787Z,16.23
2018-11-10T06:18:54.977Z,17.17
2018-11-10T06:21:23.045Z,15.97
2018-11-10T06:23:51.177Z,14.73
2018-11-10T06:26:19.312Z,16.07
2018-11-10T06:28:47.456Z,19.17
2018-11-10T06:31:15.600Z,16.53
2018-11-10T06:33:43.736Z,19.83
2018-11-10T06:36:11.883Z,19.80
2018-11-10T06:38:40.004Z,17.53
2018-11-10T06:41:08.400Z,16.13
2018-11-10T06:43:36.524Z,16.03
2018-11-10T06:46:04.885Z,17.37
2018-11-10T06:48:33.043Z,16.87
2018-11-10T06:51:01.185Z,17.73
2018-11-10T06:53:29.370Z,16.33
2018-11-10T06:55:57.516Z,16.80
2018-11-10T06:58:25.657Z,19.10
2018-11-10T07:00:53.805Z,19.30
2018-11-10T07:03:21.976Z,14.80
2018-11-10T07:05:50.056Z,16.47
2018-11-10T07:08:18.147Z,25.20
2018-11-10T07:10:46.262Z,15.93
2018-11-10T07:13:14.363Z,19.10
2018-11-10T07:15:42.475Z,18.60
2018-11-10T07:18:10.755Z,24.07
2018-11-10T07:20:38.730Z,19.63
2018-11-10T07:23:06.861Z,21.50
2018-11-10T07:25:34.974Z,22.73
2018-11-10T07:28:03.090Z,23.37
2018-11-10T07:30:31.213Z,20.23
2018-11-10T07:32:59.365Z,18.00
2018-11-10T07:35:27.440Z,22.50
2018-11-10T07:37:55.565Z,27.43
2018-11-10T07:40:23.690Z,18.00
2018-11-10T07:42:51.862Z,21.60
2018-11-10T07:45:19.925Z,19.83
2018-11-10T07:47:48.034Z,25.33
2018-11-10T07:50:16.162Z,21.07
2018-11-10T07:52:44.290Z,21.43
2018-11-10T07:55:13.631Z,22.90
2018-11-10T07:57:41.773Z,22.13
2018-11-10T08:00:12.508Z,23.67
2018-11-10T08:02:40.934Z,22.87
2018-11-10T08:05:10.134Z,25.80
2018-11-10T08:07:38.808Z,20.57
2018-11-10T08:10:07.186Z,24.73
2018-11-10T08:12:35.567Z,28.70
2018-11-10T08:15:03.714Z,25.87
2018-11-10T08:17:31.852Z,28.17
2018-11-10T08:20:00.057Z,26.47
2018-11-10T08:22:28.217Z,21.57
2018-11-10T08:24:56.397Z,22.77
2018-11-10T08:27:24.533Z,24.50
2018-11-10T08:29:52.679Z,23.13
2018-11-10T08:32:20.859Z,22.87
2018-11-10T08:34:48.978Z,20.30
2018-11-10T08:37:17.140Z,19.60
2018-11-10T08:39:45.264Z,21.80
2018-11-10T08:42:13.430Z,19.27
2018-11-10T08:44:41.580Z,21.87
2018-11-10T08:47:09.733Z,21.83
2018-11-10T08:49:37.882Z,18.20
2018-11-10T08:52:06.037Z,24.30
2018-11-10T08:54:34.186Z,24.03
2018-11-10T08:57:02.342Z,20.10
2018-11-10T08:59:30.520Z,26.40
2018-11-10T09:01:58.697Z,21.37
2018-11-10T09:04:26.819Z,20.70
2018-11-10T09:06:54.969Z,19.20
2018-11-10T09:09:23.129Z,20.07
2018-11-10T09:11:51.274Z,17.33
2018-11-10T09:14:19.404Z,18.80
2018-11-10T09:16:47.543Z,19.57
2018-11-10T09:19:15.698Z,19.67
2018-11-10T09:21:43.893Z,20.97
2018-11-10T09:24:11.965Z,19.43
2018-11-10T09:26:40.109Z,17.53
2018-11-10T09:29:08.578Z,16.00
2018-11-10T09:31:36.724Z,18.23
2018-11-10T09:34:04.923Z,15.13
2018-11-10T09:36:33.126Z,15.70
2018-11-10T09:39:01.244Z,22.00
2018-11-10T09:41:29.386Z,16.13
2018-11-10T09:43:57.505Z,16.57
2018-11-10T09:46:25.645Z,18.90
2018-11-10T09:48:53.776Z,16.10
2018-11-10T09:51:28.763Z,15.43
2018-11-10T09:53:56.900Z,17.33
2018-11-10T09:56:25.054Z,17.20
2018-11-10T09:58:53.197Z,14.70
2018-11-10T10:01:21.446Z,16.40
2018-11-10T10:03:49.491Z,16.10
2018-11-10T10:06:17.655Z,15.40
2018-11-10T10:08:45.905Z,18.37
2018-11-10T10:11:13.984Z,15.60
2018-11-10T10:13:42.137Z,19.03
2018-11-10T10:16:10.416Z,14.40
2018-11-10T10:18:38.466Z,12.70
2018-11-10T10:21:06.641Z,16.63
2018-11-10T10:23:34.868Z,18.07
2018-11-10T10:26:03.013Z,15.10
2018-11-10T10:28:31.198Z,16.30
2018-11-10T10:30:59.298Z,17.10
2018-11-10T10:33:27.444Z,15.27
2018-11-10T10:35:55.585Z,19.00
2018-11-10T10:38:23.805Z,17.30
2018-11-10T10:40:51.939Z,17.13
2018-11-10T10:43:20.072Z,19.33
2018-11-10T10:45:48.226Z,17.23
2018-11-10T10:48:16.361Z,19.33
2018-11-10T10:50:44.542Z,17.83
2018-11-10T10:53:12.735Z,17.43
2018-11-10T10:55:40.868Z,16.60
2018-11-10T10:58:09.038Z,19.93
2018-11-10T11:00:42.604Z,16.77
2018-11-10T11:03:16.358Z,14.00
2018-11-10T11:05:48.718Z,19.10
2018-11-10T11:08:16.862Z,18.40
2018-11-10T11:10:44.990Z,14.00
2018-11-10T11:13:13.145Z,14.03
2018-11-10T11:15:41.349Z,11.13
2018-11-10T11:18:09.502Z,18.30
2018-11-10T11:20:37.657Z,13.37
2018-11-10T11:23:05.797Z,20.00
2018-11-10T11:25:33.964Z,25.03
2018-11-10T11:28:02.101Z,15.07
2018-11-10T11:30:30.248Z,18.50
2018-11-10T11:32:58.493Z,16.20
2018-11-10T11:35:26.710Z,17.30
2018-11-10T11:37:54.761Z,12.50
2018-11-10T11:40:22.906Z,15.47
2018-11-10T11:42:51.052Z,15.00
2018-11-10T11:45:19.199Z,13.90
2018-11-10T11:47:47.344Z,17.93
2018-11-10T11:50:16.219Z,14.60
2018-11-10T11:52:44.925Z,14.93
2018-11-10T11:55:13.590Z,17.90
2018-11-10T11:57:41.840Z,15.27
2018-11-10T12:00:12.861Z,18.27
2018-11-10T12:02:41.806Z,14.83
2018-11-10T12:05:11.101Z,14.93
2018-11-10T12:07:39.209Z,16.23
2018-11-10T12:10:08.369Z,13.63
2018-11-10T12:12:36.470Z,17.30
2018-11-10T12:15:04.827Z,18.23
2018-11-10T12:17:32.915Z,15.63
2018-11-10T12:20:01.181Z,18.80
2018-11-10T12:22:29.305Z,15.33
2018-11-10T12:24:57.413Z,18.13
2018-11-10T12:27:25.569Z,16.20
2018-11-10T12:29:53.616Z,14.33
2018-11-10T12:32:21.725Z,14.97
2018-11-10T12:34:49.914Z,14.53
2018-11-10T12:37:18.013Z,12.83
2018-11-10T12:39:46.133Z,12.20
2018-11-10T12:42:14.231Z,13.83
2018-11-10T12:44:42.340Z,10.23
2018-11-10T12:47:10.456Z,14.60
2018-11-10T12:49:38.557Z,11.50
2018-11-10T12:52:06.694Z,10.10
2018-11-10T12:54:34.791Z,14.40
2018-11-10T12:57:03.081Z,7.90
2018-11-10T12:59:31.239Z,12.03
2018-11-10T13:01:59.381Z,9.90
2018-11-10T13:04:27.489Z,16.10
2018-11-10T13:06:55.616Z,9.63
2018-11-10T13:09:23.714Z,10.83
2018-11-10T13:11:51.872Z,12.30
2018-11-10T13:14:20.020Z,10.00
2018-11-10T13:16:48.050Z,12.87
2018-11-10T13:19:16.147Z,9.57
2018-11-10T13:21:44.305Z,10.13
2018-11-10T13:24:12.450Z,12.17
2018-11-10T13:26:40.521Z,10.00
2018-11-10T13:29:08.729Z,10.33
2018-11-10T13:31:36.911Z,9.33
2018-11-10T13:34:05.636Z,12.10
2018-11-10T13:36:33.747Z,10.60
2018-11-10T13:39:01.940Z,9.30
2018-11-10T13:41:30.068Z,9.87
2018-11-10T13:43:58.265Z,10.00
2018-11-10T13:46:26.285Z,11.43
2018-11-10T13:48:54.401Z,8.47
2018-11-10T13:51:22.654Z,8.70
2018-11-10T13:53:50.639Z,9.90
2018-11-10T13:56:18.753Z,7.93
2018-11-10T13:58:46.853Z,8.23
2018-11-10T14:01:14.965Z,9.17
2018-11-10T14:03:43.084Z,10.00
2018-11-10T14:06:11.190Z,7.37
2018-11-10T14:08:39.289Z,9.83
2018-11-10T14:11:07.396Z,6.73
2018-11-10T14:13:35.510Z,6.60
2018-11-10T14:16:03.614Z,6.27
2018-11-10T14:18:31.753Z,7.07
2018-11-10T14:20:59.876Z,6.60
2018-11-10T14:23:27.960Z,11.00
2018-11-10T14:25:56.078Z,7.13
2018-11-10T14:28:24.186Z,6.70
2018-11-10T14:30:52.321Z,5.57
2018-11-10T14:33:20.419Z,7.77
2018-11-10T14:35:48.531Z,6.17
2018-11-10T14:38:16.641Z,6.70
2018-11-10T14:40:44.745Z,5.30
2018-11-10T14:43:12.848Z,7.90
2018-11-10T14:45:40.963Z,5.70
2018-11-10T14:48:09.058Z,5.30
2018-11-10T14:50:37.153Z,6.07
2018-11-10T14:53:05.475Z,4.07
2018-11-10T14:55:33.397Z,6.37
2018-11-10T14:58:01.489Z,4.57
2018-11-10T15:00:29.838Z,7.33
2018-11-10T15:02:57.954Z,5.30
2018-11-10T15:05:26.077Z,6.20
2018-11-10T15:07:54.139Z,6.23
2018-11-10T15:10:22.240Z,8.13
2018-11-10T15:12:50.336Z,5.20
2018-11-10T15:15:19.079Z,5.13
2018-11-10T15:17:47.460Z,4.60
2018-11-10T15:20:16.881Z,5.40
2018-11-10T15:22:45.012Z,5.20
2018-11-10T15:25:14.624Z,5.37
2018-11-10T15:27:42.572Z,4.13
2018-11-10T15:30:13.156Z,4.53
2018-11-10T15:32:42.053Z,5.33
2018-11-10T15:35:12.071Z,5.27
2018-11-10T15:37:40.591Z,4.20
2018-11-10T15:40:09.762Z,4.57
2018-11-10T15:42:38.043Z,3.20
2018-11-10T15:45:06.672Z,6.27
2018-11-10T15:47:34.802Z,4.23
2018-11-10T15:50:02.922Z,3.90
2018-11-10T15:52:31.032Z,5.13
2018-11-10T15:54:59.124Z,4.23
2018-11-10T15:57:27.245Z,4.80
2018-11-10T15:59:55.370Z,4.50
2018-11-10T16:02:23.486Z,3.90
2018-11-10T16:04:51.638Z,2.77
2018-11-10T16:07:19.780Z,2.97
2018-11-10T16:09:47.897Z,3.37
2018-11-10T16:12:16.042Z,2.00
2018-11-10T16:14:44.164Z,2.47
2018-11-10T16:17:12.341Z,3.70
2018-11-10T16:19:40.440Z,4.20
2018-11-10T16:22:08.565Z,3.10
2018-11-10T16:24:36.703Z,2.50
2018-11-10T16:27:05.237Z,3.50
2018-11-10T16:29:33.365Z,2.40
2018-11-10T16:32:01.653Z,1.90
2018-11-10T16:34:29.946Z,2.63
2018-11-10T16:36:58.119Z,2.63
2018-11-10T16:39:26.225Z,2.90
2018-11-10T16:41:54.369Z,2.43
2018-11-10T16:44:22.514Z,2.43
2018-11-10T16:46:50.684Z,2.17
2018-11-10T16:49:18.822Z,3.53
2018-11-10T16:51:46.966Z,2.57
2018-11-10T16:54:15.106Z,5.03
2018-11-10T16:56:43.278Z,5.40
2018-11-10T16:59:11.563Z,2.50
2018-11-10T17:01:39.600Z,3.13
2018-11-10T17:04:07.749Z,2.87
2018-11-10T17:06:35.903Z,3.63
2018-11-10T17:09:05.422Z,4.23
2018-11-10T17:11:33.561Z,3.27
2018-11-10T17:14:01.711Z,2.77
2018-11-10T17:16:29.896Z,3.00
2018-11-10T17:18:58.024Z,2.73
2018-11-10T17:21:26.199Z,4.87
2018-11-10T17:23:54.281Z,5.20
2018-11-10T17:26:22.418Z,4.57
2018-11-10T17:28:50.567Z,3.10
2018-11-10T17:31:18.692Z,5.60
2018-11-10T17:33:46.825Z,3.63
2018-11-10T17:36:14.958Z,4.50
2018-11-10T17:38:43.201Z,4.30
2018-11-10T17:41:11.346Z,2.97
2018-11-10T17:43:39.498Z,3.17
2018-11-10T17:46:07.622Z,4.07
2018-11-10T17:48:35.757Z,3.67
2018-11-10T17:51:04.126Z,4.30
2018-11-10T17:53:32.260Z,4.47
2018-11-10T17:56:00.511Z,3.30
2018-11-10T17:58:28.832Z,4.23
2018-11-10T18:00:56.932Z,3.10
2018-11-10T18:03:25.080Z,3.40
2018-11-10T18:05:53.216Z,3.70
2018-11-10T18:08:21.407Z,3.17
2018-11-10T18:10:49.633Z,2.80
2018-11-10T18:13:17.781Z,4.07
2018-11-10T18:15:46.010Z,2.27
2018-11-10T18:18:14.157Z,6.30
2018-11-10T18:20:42.367Z,5.67
2018-11-10T18:23:10.510Z,3.80
2018-11-10T18:25:38.645Z,4.77
2018-11-10T18:28:06.817Z,4.27
2018-11-10T18:30:34.954Z,3.00
2018-11-10T18:33:03.103Z,3.10
2018-11-10T18:35:31.290Z,3.60
2018-11-10T18:37:59.441Z,3.23
2018-11-10T18:40:27.577Z,3.90
2018-11-10T18:42:55.722Z,5.80
2018-11-10T18:45:23.858Z,4.27
2018-11-10T18:47:51.991Z,3.13
2018-11-10T18:50:20.109Z,12.03
2018-11-10T18:52:48.259Z,3.83
2018-11-10T18:55:16.575Z,3.37
2018-11-10T18:57:45.311Z,5.33
2018-11-10T19:00:14.672Z,5.53
2018-11-10T19:02:43.804Z,3.90
2018-11-10T19:05:13.477Z,9.00
2018-11-10T19:07:41.605Z,3.27
2018-11-10T19:10:11.590Z,5.80
2018-11-10T19:12:40.157Z,3.40
2018-11-10T19:15:11.977Z,3.40
2018-11-10T19:17:40.108Z,3.83
2018-11-10T19:20:08.561Z,3.80
2018-11-10T19:22:36.770Z,3.10
2018-11-10T19:25:05.999Z,7.73
2018-11-10T19:27:34.380Z,3.40
2018-11-10T19:30:02.541Z,3.87
2018-11-10T19:32:30.660Z,3.87
2018-11-10T19:34:58.862Z,5.27
2018-11-10T19:37:27.000Z,4.50
2018-11-10T19:39:55.139Z,5.30
2018-11-10T19:42:23.275Z,4.47
2018-11-10T19:44:51.521Z,4.47
2018-11-10T19:47:19.657Z,6.17
2018-11-10T19:49:47.785Z,4.80
2018-11-10T19:52:16.169Z,6.33
2018-11-10T19:54:44.107Z,5.20
2018-11-10T19:57:12.245Z,6.07
2018-11-10T19:59:40.364Z,7.70
2018-11-10T20:02:08.525Z,5.83
2018-11-10T20:04:36.645Z,6.30
2018-11-10T20:07:04.752Z,6.60
2018-11-10T20:09:32.860Z,8.37
2018-11-10T20:12:00.970Z,7.47
2018-11-10T20:14:29.068Z,8.10
2018-11-10T20:16:57.212Z,7.10
2018-11-10T20:19:25.349Z,7.13
2018-11-10T20:21:53.480Z,9.00
2018-11-10T20:24:21.592Z,7.30
2018-11-10T20:26:49.686Z,8.63
2018-11-10T20:29:17.798Z,9.10
2018-11-10T20:31:45.892Z,8.17
2018-11-10T20:34:14.012Z,8.03
2018-11-10T20:36:42.113Z,9.47
2018-11-10T20:39:10.862Z,8.57
2018-11-10T20:41:39.229Z,7.33
2018-11-10T20:44:07.821Z,7.37
2018-11-10T20:46:35.912Z,6.73
2018-11-10T20:49:04.309Z,8.77
2018-11-10T20:51:32.412Z,6.70
2018-11-10T20:54:00.509Z,7.63
2018-11-10T20:56:28.722Z,9.67
2018-11-10T20:58:56.894Z,6.90
2018-11-10T21:01:25.273Z,6.70
2018-11-10T21:03:53.386Z,5.93
2018-11-10T21:06:21.505Z,7.57
2018-11-10T21:08:49.607Z,7.20
2018-11-10T21:11:17.696Z,7.47
2018-11-10T21:13:45.808Z,6.33
2018-11-10T21:16:13.981Z,6.63
2018-11-10T21:18:43.034Z,7.70
2018-11-10T21:21:11.133Z,6.97
2018-11-10T21:23:39.230Z,6.70
2018-11-10T21:26:07.364Z,7.83
2018-11-10T21:28:35.542Z,6.63
2018-11-10T21:31:03.638Z,6.57
2018-11-10T21:33:31.842Z,8.00
2018-11-10T21:36:00.040Z,6.43
2018-11-10T21:38:28.233Z,6.50
2018-11-10T21:40:56.392Z,7.00
2018-11-10T21:43:24.498Z,6.73
2018-11-10T21:45:52.715Z,8.63
2018-11-10T21:48:20.785Z,8.90
2018-11-10T21:50:49.037Z,7.00
2018-11-10T21:53:17.190Z,6.43
2018-11-10T21:55:45.309Z,6.30
2018-11-10T21:58:13.407Z,6.93
2018-11-10T22:00:41.492Z,6.80
2018-11-10T22:03:09.659Z,7.07
2018-11-10T22:05:37.941Z,7.60
2018-11-10T22:08:06.070Z,5.73
2018-11-10T22:10:34.193Z,6.50
2018-11-10T22:13:02.320Z,6.10
2018-11-10T22:15:30.500Z,5.90
2018-11-10T22:17:58.682Z,7.00
2018-11-10T22:20:26.835Z,5.80
2018-11-10T22:22:55.004Z,6.33
2018-11-10T22:25:23.081Z,4.90
2018-11-10T22:27:52.672Z,4.63
2018-11-10T22:30:21.873Z,5.47
2018-11-10T22:32:50.466Z,3.77
2018-11-10T22:35:18.632Z,3.97
2018-11-10T22:37:46.789Z,3.27
2018-11-10T22:40:16.334Z,3.93
2018-11-10T22:42:44.905Z,3.37
2018-11-10T22:45:14.421Z,3.83
2018-11-10T22:47:42.923Z,5.57
2018-11-10T22:50:13.729Z,4.07
2018-11-10T22:52:42.209Z,2.47
2018-11-10T22:55:10.597Z,3.00
2018-11-10T22:57:38.721Z,4.33
2018-11-10T23:00:11.990Z,3.30
2018-11-10T23:02:40.120Z,2.00
2018-11-10T23:05:08.225Z,2.30
2018-11-10T23:07:36.318Z,5.93
2018-11-10T23:10:04.605Z,1.97
2018-11-10T23:12:32.694Z,2.20
2018-11-10T23:15:00.801Z,2.90
2018-11-10T23:17:28.900Z,2.57
2018-11-10T23:19:57.014Z,1.80
2018-11-10T23:22:25.130Z,3.07
2018-11-10T23:24:53.255Z,2.07
2018-11-10T23:27:21.375Z,4.30
2018-11-10T23:29:49.482Z,3.27
2018-11-10T23:32:17.572Z,2.00
2018-11-10T23:34:45.673Z,3.80
2018-11-10T23:37:13.778Z,3.03
2018-11-10T23:39:41.869Z,1.97
2018-11-10T23:42:09.960Z,1.80
2018-11-10T23:44:38.177Z,1.93
2018-11-10T23:47:06.418Z,2.80
2018-11-10T23:49:35.315Z,5.50
2018-11-10T23:52:03.421Z,2.70
2018-11-10T23:54:31.520Z,4.90
2018-11-10T23:56:59.683Z,2.47
2018-11-10T23:59:27.822Z,2.10
